sensor_id;sensor_type;location;lat;lon;timestamp;temperature;humidity
16643;DHT22;8435;52.184;5.406;2023-05-07T00:01:59;18.00;99.90
16643;DHT22;8435;52.184;5.406;2023-05-07T00:04:26;18.00;99.90
16643;DHT22;8435;52.184;5.406;2023-05-07T00:07:02;18.00;99.90
16643;DHT22;8435;52.184;5.406;2023-05-07T00:09:29;17.90;99.90
16643;DHT22;8435;52.184;5.406;2023-05-07T00:11:56;17.90;99.90
16643;DHT22;8435;52.184;5.406;2023-05-07T00:14:23;17.90;99.90
16643;DHT22;8435;52.184;5.406;2023-05-07T00:16:50;17.90;99.90
16643;DHT22;8435;52.184;5.406;2023-05-07T00:19:16;17.90;99.90
16643;DHT22;8435;52.184;5.406;2023-05-07T00:21:43;17.90;99.90
16643;DHT22;8435;52.184;5.406;2023-05-07T00:24:12;17.80;99.90
16643;DHT22;8435;52.184;5.406;2023-05-07T00:26:40;17.80;99.90
16643;DHT22;8435;52.184;5.406;2023-05-07T00:29:09;17.80;99.90
16643;DHT22;8435;52.184;5.406;2023-05-07T00:31:36;17.80;99.90
16643;DHT22;8435;52.184;5.406;2023-05-07T00:34:05;17.70;99.90
16643;DHT22;8435;52.184;5.406;2023-05-07T00:36:32;17.70;99.90
16643;DHT22;8435;52.184;5.406;2023-05-07T00:39:00;17.70;99.90
16643;DHT22;8435;52.184;5.406;2023-05-07T00:41:32;17.70;99.90
16643;DHT22;8435;52.184;5.406;2023-05-07T00:44:00;17.70;99.90
16643;DHT22;8435;52.184;5.406;2023-05-07T00:46:30;17.60;99.90
16643;DHT22;8435;52.184;5.406;2023-05-07T00:48:58;17.60;99.90
16643;DHT22;8435;52.184;5.406;2023-05-07T00:51:25;17.60;99.90
16643;DHT22;8435;52.184;5.406;2023-05-07T00:53:53;17.60;99.90
16643;DHT22;8435;52.184;5.406;2023-05-07T00:56:21;17.60;99.90
16643;DHT22;8435;52.184;5.406;2023-05-07T00:58:49;17.60;99.90
16643;DHT22;8435;52.184;5.406;2023-05-07T01:01:16;17.60;99.90
16643;DHT22;8435;52.184;5.406;2023-05-07T01:03:45;17.50;99.90
16643;DHT22;8435;52.184;5.406;2023-05-07T01:06:13;17.60;99.90
16643;DHT22;8435;52.184;5.406;2023-05-07T01:08:42;17.50;99.90
16643;DHT22;8435;52.184;5.406;2023-05-07T01:11:10;17.50;99.90
16643;DHT22;8435;52.184;5.406;2023-05-07T01:13:38;17.50;99.90
16643;DHT22;8435;52.184;5.406;2023-05-07T01:16:08;17.50;99.90
16643;DHT22;8435;52.184;5.406;2023-05-07T01:18:36;17.50;99.90
16643;DHT22;8435;52.184;5.406;2023-05-07T01:21:10;17.50;99.90
16643;DHT22;8435;52.184;5.406;2023-05-07T01:23:39;17.50;99.90
16643;DHT22;8435;52.184;5.406;2023-05-07T01:26:10;17.50;99.90
16643;DHT22;8435;52.184;5.406;2023-05-07T01:28:37;17.40;99.90
16643;DHT22;8435;52.184;5.406;2023-05-07T01:31:04;17.50;99.90
16643;DHT22;8435;52.184;5.406;2023-05-07T01:33:34;17.50;99.90
16643;DHT22;8435;52.184;5.406;2023-05-07T01:36:01;17.40;99.90
16643;DHT22;8435;52.184;5.406;2023-05-07T01:38:32;17.40;99.90
16643;DHT22;8435;52.184;5.406;2023-05-07T01:41:00;17.50;99.90
16643;DHT22;8435;52.184;5.406;2023-05-07T01:43:31;17.50;99.90
16643;DHT22;8435;52.184;5.406;2023-05-07T01:45:59;17.50;99.90
16643;DHT22;8435;52.184;5.406;2023-05-07T01:48:26;17.50;99.90
16643;DHT22;8435;52.184;5.406;2023-05-07T01:50:53;17.50;99.90
16643;DHT22;8435;52.184;5.406;2023-05-07T01:53:21;17.50;99.90
16643;DHT22;8435;52.184;5.406;2023-05-07T01:55:48;17.50;99.90
16643;DHT22;8435;52.184;5.406;2023-05-07T01:58:16;17.60;99.90
16643;DHT22;8435;52.184;5.406;2023-05-07T02:00:43;17.60;99.90
16643;DHT22;8435;52.184;5.406;2023-05-07T02:03:10;17.60;99.90
16643;DHT22;8435;52.184;5.406;2023-05-07T02:05:37;17.60;99.90
16643;DHT22;8435;52.184;5.406;2023-05-07T02:08:04;17.60;99.90
16643;DHT22;8435;52.184;5.406;2023-05-07T02:10:31;17.60;99.90
16643;DHT22;8435;52.184;5.406;2023-05-07T02:12:58;17.60;99.90
16643;DHT22;8435;52.184;5.406;2023-05-07T02:15:26;17.60;99.90
16643;DHT22;8435;52.184;5.406;2023-05-07T02:18:03;17.60;99.90
16643;DHT22;8435;52.184;5.406;2023-05-07T02:20:30;17.60;99.90
16643;DHT22;8435;52.184;5.406;2023-05-07T02:22:57;17.60;99.90
16643;DHT22;8435;52.184;5.406;2023-05-07T02:25:24;17.50;99.90
16643;DHT22;8435;52.184;5.406;2023-05-07T02:27:51;17.50;99.90
16643;DHT22;8435;52.184;5.406;2023-05-07T02:30:18;17.50;99.90
16643;DHT22;8435;52.184;5.406;2023-05-07T02:32:48;17.50;99.90
16643;DHT22;8435;52.184;5.406;2023-05-07T02:35:15;17.50;99.90
16643;DHT22;8435;52.184;5.406;2023-05-07T02:37:42;17.50;99.90
16643;DHT22;8435;52.184;5.406;2023-05-07T02:40:11;17.50;99.90
16643;DHT22;8435;52.184;5.406;2023-05-07T02:42:38;17.50;99.90
16643;DHT22;8435;52.184;5.406;2023-05-07T02:45:06;17.50;99.90
16643;DHT22;8435;52.184;5.406;2023-05-07T02:47:33;17.40;99.90
16643;DHT22;8435;52.184;5.406;2023-05-07T02:50:01;17.40;99.90
16643;DHT22;8435;52.184;5.406;2023-05-07T02:52:30;17.40;99.90
16643;DHT22;8435;52.184;5.406;2023-05-07T02:54:57;17.40;99.90
16643;DHT22;8435;52.184;5.406;2023-05-07T02:57:24;17.40;99.90
16643;DHT22;8435;52.184;5.406;2023-05-07T02:59:51;17.30;99.90
16643;DHT22;8435;52.184;5.406;2023-05-07T03:02:18;17.30;99.90
16643;DHT22;8435;52.184;5.406;2023-05-07T03:04:45;17.30;99.90
16643;DHT22;8435;52.184;5.406;2023-05-07T03:07:13;17.30;99.90
16643;DHT22;8435;52.184;5.406;2023-05-07T03:09:40;17.30;99.90
16643;DHT22;8435;52.184;5.406;2023-05-07T03:12:08;17.30;99.90
16643;DHT22;8435;52.184;5.406;2023-05-07T03:14:34;17.30;99.90
16643;DHT22;8435;52.184;5.406;2023-05-07T03:17:01;17.30;99.90
16643;DHT22;8435;52.184;5.406;2023-05-07T03:19:28;17.30;99.90
16643;DHT22;8435;52.184;5.406;2023-05-07T03:21:58;17.30;99.90
16643;DHT22;8435;52.184;5.406;2023-05-07T03:24:26;17.30;99.90
16643;DHT22;8435;52.184;5.406;2023-05-07T03:26:53;17.30;99.90
16643;DHT22;8435;52.184;5.406;2023-05-07T03:29:20;17.30;99.90
16643;DHT22;8435;52.184;5.406;2023-05-07T03:31:47;17.30;99.90
16643;DHT22;8435;52.184;5.406;2023-05-07T03:34:14;17.40;99.90
16643;DHT22;8435;52.184;5.406;2023-05-07T03:36:42;17.40;99.90
16643;DHT22;8435;52.184;5.406;2023-05-07T03:39:09;17.40;99.90
16643;DHT22;8435;52.184;5.406;2023-05-07T03:41:37;17.40;99.90
16643;DHT22;8435;52.184;5.406;2023-05-07T03:44:04;17.40;99.90
16643;DHT22;8435;52.184;5.406;2023-05-07T03:46:31;17.40;99.90
16643;DHT22;8435;52.184;5.406;2023-05-07T03:48:58;17.30;99.90
16643;DHT22;8435;52.184;5.406;2023-05-07T03:51:25;17.40;99.90
16643;DHT22;8435;52.184;5.406;2023-05-07T03:53:52;17.40;99.90
16643;DHT22;8435;52.184;5.406;2023-05-07T03:56:19;17.30;99.90
16643;DHT22;8435;52.184;5.406;2023-05-07T03:58:48;17.40;99.90
16643;DHT22;8435;52.184;5.406;2023-05-07T04:01:15;17.40;99.90
16643;DHT22;8435;52.184;5.406;2023-05-07T04:03:42;17.40;99.90
16643;DHT22;8435;52.184;5.406;2023-05-07T04:06:11;17.30;99.90
16643;DHT22;8435;52.184;5.406;2023-05-07T04:08:38;17.40;99.90
16643;DHT22;8435;52.184;5.406;2023-05-07T04:11:07;17.40;99.90
16643;DHT22;8435;52.184;5.406;2023-05-07T04:13:34;17.40;99.90
16643;DHT22;8435;52.184;5.406;2023-05-07T04:16:03;17.40;99.90
16643;DHT22;8435;52.184;5.406;2023-05-07T04:18:30;17.40;99.90
16643;DHT22;8435;52.184;5.406;2023-05-07T04:20:57;17.40;99.90
16643;DHT22;8435;52.184;5.406;2023-05-07T04:23:24;17.40;99.90
16643;DHT22;8435;52.184;5.406;2023-05-07T04:25:51;17.40;99.90
16643;DHT22;8435;52.184;5.406;2023-05-07T04:28:18;17.40;99.90
16643;DHT22;8435;52.184;5.406;2023-05-07T04:30:45;17.40;99.90
16643;DHT22;8435;52.184;5.406;2023-05-07T04:33:14;17.40;99.90
16643;DHT22;8435;52.184;5.406;2023-05-07T04:35:42;17.40;99.90
16643;DHT22;8435;52.184;5.406;2023-05-07T04:38:09;17.40;99.90
16643;DHT22;8435;52.184;5.406;2023-05-07T04:40:36;17.40;99.90
16643;DHT22;8435;52.184;5.406;2023-05-07T04:43:04;17.40;99.90
16643;DHT22;8435;52.184;5.406;2023-05-07T04:45:32;17.40;99.90
16643;DHT22;8435;52.184;5.406;2023-05-07T04:47:59;17.40;99.90
16643;DHT22;8435;52.184;5.406;2023-05-07T04:50:28;17.50;99.90
16643;DHT22;8435;52.184;5.406;2023-05-07T04:52:55;17.40;99.90
16643;DHT22;8435;52.184;5.406;2023-05-07T04:55:24;17.40;99.90
16643;DHT22;8435;52.184;5.406;2023-05-07T04:57:52;17.40;99.90
16643;DHT22;8435;52.184;5.406;2023-05-07T05:00:19;17.50;99.90
16643;DHT22;8435;52.184;5.406;2023-05-07T05:02:46;17.40;99.90
16643;DHT22;8435;52.184;5.406;2023-05-07T05:05:13;17.40;99.90
16643;DHT22;8435;52.184;5.406;2023-05-07T05:07:44;17.40;99.90
16643;DHT22;8435;52.184;5.406;2023-05-07T05:10:11;17.40;99.90
16643;DHT22;8435;52.184;5.406;2023-05-07T05:12:38;17.40;99.90
16643;DHT22;8435;52.184;5.406;2023-05-07T05:15:06;17.40;99.90
16643;DHT22;8435;52.184;5.406;2023-05-07T05:17:33;17.40;99.90
16643;DHT22;8435;52.184;5.406;2023-05-07T05:20:00;17.40;99.90
16643;DHT22;8435;52.184;5.406;2023-05-07T05:22:27;17.40;99.90
16643;DHT22;8435;52.184;5.406;2023-05-07T05:24:56;17.40;99.90
16643;DHT22;8435;52.184;5.406;2023-05-07T05:27:23;17.40;99.90
16643;DHT22;8435;52.184;5.406;2023-05-07T05:29:50;17.40;99.90
16643;DHT22;8435;52.184;5.406;2023-05-07T05:32:17;17.30;99.90
16643;DHT22;8435;52.184;5.406;2023-05-07T05:34:44;17.40;99.90
16643;DHT22;8435;52.184;5.406;2023-05-07T05:37:14;17.30;99.90
16643;DHT22;8435;52.184;5.406;2023-05-07T05:39:41;17.40;99.90
16643;DHT22;8435;52.184;5.406;2023-05-07T05:42:09;17.40;99.90
16643;DHT22;8435;52.184;5.406;2023-05-07T05:44:36;17.40;99.90
16643;DHT22;8435;52.184;5.406;2023-05-07T05:47:03;17.40;99.90
16643;DHT22;8435;52.184;5.406;2023-05-07T05:49:30;17.50;99.90
16643;DHT22;8435;52.184;5.406;2023-05-07T05:51:57;17.50;99.90
16643;DHT22;8435;52.184;5.406;2023-05-07T05:54:23;17.50;99.90
16643;DHT22;8435;52.184;5.406;2023-05-07T05:56:50;17.50;99.90
16643;DHT22;8435;52.184;5.406;2023-05-07T05:59:19;17.50;99.90
16643;DHT22;8435;52.184;5.406;2023-05-07T06:01:46;17.50;99.90
16643;DHT22;8435;52.184;5.406;2023-05-07T06:04:13;17.60;99.90
16643;DHT22;8435;52.184;5.406;2023-05-07T06:06:41;17.60;99.90
16643;DHT22;8435;52.184;5.406;2023-05-07T06:09:08;17.70;99.90
16643;DHT22;8435;52.184;5.406;2023-05-07T06:11:36;17.70;99.90
16643;DHT22;8435;52.184;5.406;2023-05-07T06:14:05;17.80;99.90
16643;DHT22;8435;52.184;5.406;2023-05-07T06:16:33;17.80;99.90
16643;DHT22;8435;52.184;5.406;2023-05-07T06:19:01;17.80;99.90
16643;DHT22;8435;52.184;5.406;2023-05-07T06:21:29;17.90;99.90
16643;DHT22;8435;52.184;5.406;2023-05-07T06:23:56;17.90;99.90
16643;DHT22;8435;52.184;5.406;2023-05-07T06:26:23;17.90;99.90
16643;DHT22;8435;52.184;5.406;2023-05-07T06:28:50;17.90;99.90
16643;DHT22;8435;52.184;5.406;2023-05-07T06:31:18;17.80;99.90
16643;DHT22;8435;52.184;5.406;2023-05-07T06:33:48;17.90;99.90
16643;DHT22;8435;52.184;5.406;2023-05-07T06:36:15;17.80;99.90
16643;DHT22;8435;52.184;5.406;2023-05-07T06:38:43;17.80;99.90
16643;DHT22;8435;52.184;5.406;2023-05-07T06:41:09;17.80;99.90
16643;DHT22;8435;52.184;5.406;2023-05-07T06:43:36;17.90;99.90
16643;DHT22;8435;52.184;5.406;2023-05-07T06:46:03;17.80;99.90
16643;DHT22;8435;52.184;5.406;2023-05-07T06:48:30;17.90;99.90
16643;DHT22;8435;52.184;5.406;2023-05-07T06:51:00;17.80;99.90
16643;DHT22;8435;52.184;5.406;2023-05-07T06:53:27;17.90;99.90
16643;DHT22;8435;52.184;5.406;2023-05-07T06:55:54;17.80;99.90
16643;DHT22;8435;52.184;5.406;2023-05-07T06:58:21;17.90;99.90
16643;DHT22;8435;52.184;5.406;2023-05-07T07:00:48;17.90;99.90
16643;DHT22;8435;52.184;5.406;2023-05-07T07:03:15;17.90;99.90
16643;DHT22;8435;52.184;5.406;2023-05-07T07:05:42;18.00;99.90
16643;DHT22;8435;52.184;5.406;2023-05-07T07:08:10;18.00;99.90
16643;DHT22;8435;52.184;5.406;2023-05-07T07:10:40;18.00;99.90
16643;DHT22;8435;52.184;5.406;2023-05-07T07:13:07;18.10;99.90
16643;DHT22;8435;52.184;5.406;2023-05-07T07:15:34;18.10;99.90
16643;DHT22;8435;52.184;5.406;2023-05-07T07:18:00;18.20;99.90
16643;DHT22;8435;52.184;5.406;2023-05-07T07:20:28;18.20;99.90
16643;DHT22;8435;52.184;5.406;2023-05-07T07:22:55;18.30;99.90
16643;DHT22;8435;52.184;5.406;2023-05-07T07:25:24;18.30;99.90
16643;DHT22;8435;52.184;5.406;2023-05-07T07:27:50;18.30;99.90
16643;DHT22;8435;52.184;5.406;2023-05-07T07:30:17;18.40;99.90
16643;DHT22;8435;52.184;5.406;2023-05-07T07:32:44;18.50;99.90
16643;DHT22;8435;52.184;5.406;2023-05-07T07:35:13;18.50;99.90
16643;DHT22;8435;52.184;5.406;2023-05-07T07:37:39;18.70;99.90
16643;DHT22;8435;52.184;5.406;2023-05-07T07:40:07;18.70;99.90
16643;DHT22;8435;52.184;5.406;2023-05-07T07:42:36;18.90;99.90
16643;DHT22;8435;52.184;5.406;2023-05-07T07:45:04;19.00;99.90
16643;DHT22;8435;52.184;5.406;2023-05-07T07:47:30;19.20;99.90
16643;DHT22;8435;52.184;5.406;2023-05-07T07:50:01;19.30;99.90
16643;DHT22;8435;52.184;5.406;2023-05-07T07:52:31;19.40;99.90
16643;DHT22;8435;52.184;5.406;2023-05-07T07:54:57;19.50;99.90
16643;DHT22;8435;52.184;5.406;2023-05-07T07:57:24;19.60;99.90
16643;DHT22;8435;52.184;5.406;2023-05-07T07:59:53;19.80;99.90
16643;DHT22;8435;52.184;5.406;2023-05-07T08:02:19;19.90;99.90
16643;DHT22;8435;52.184;5.406;2023-05-07T08:04:46;20.00;99.90
16643;DHT22;8435;52.184;5.406;2023-05-07T08:07:16;20.10;99.90
16643;DHT22;8435;52.184;5.406;2023-05-07T08:09:46;20.20;99.90
16643;DHT22;8435;52.184;5.406;2023-05-07T08:12:13;20.30;99.90
16643;DHT22;8435;52.184;5.406;2023-05-07T08:14:40;20.50;99.90
16643;DHT22;8435;52.184;5.406;2023-05-07T08:17:09;20.70;99.90
16643;DHT22;8435;52.184;5.406;2023-05-07T08:19:36;20.70;99.90
16643;DHT22;8435;52.184;5.406;2023-05-07T08:22:03;20.80;99.90
16643;DHT22;8435;52.184;5.406;2023-05-07T08:24:31;20.90;99.90
16643;DHT22;8435;52.184;5.406;2023-05-07T08:26:57;20.90;99.90
16643;DHT22;8435;52.184;5.406;2023-05-07T08:29:24;20.90;99.90
16643;DHT22;8435;52.184;5.406;2023-05-07T08:31:51;20.80;99.90
16643;DHT22;8435;52.184;5.406;2023-05-07T08:34:21;20.90;99.90
16643;DHT22;8435;52.184;5.406;2023-05-07T08:36:50;20.90;99.90
16643;DHT22;8435;52.184;5.406;2023-05-07T08:39:17;20.80;99.90
16643;DHT22;8435;52.184;5.406;2023-05-07T08:41:44;20.80;99.90
16643;DHT22;8435;52.184;5.406;2023-05-07T08:44:13;20.80;99.90
16643;DHT22;8435;52.184;5.406;2023-05-07T08:46:41;20.70;99.90
16643;DHT22;8435;52.184;5.406;2023-05-07T08:49:09;20.70;99.90
16643;DHT22;8435;52.184;5.406;2023-05-07T08:51:40;20.60;99.90
16643;DHT22;8435;52.184;5.406;2023-05-07T08:54:12;20.60;99.90
16643;DHT22;8435;52.184;5.406;2023-05-07T08:56:42;20.50;99.90
16643;DHT22;8435;52.184;5.406;2023-05-07T08:59:09;20.50;99.90
16643;DHT22;8435;52.184;5.406;2023-05-07T09:01:36;20.40;99.90
16643;DHT22;8435;52.184;5.406;2023-05-07T09:04:04;20.40;99.90
16643;DHT22;8435;52.184;5.406;2023-05-07T09:06:32;20.40;99.90
16643;DHT22;8435;52.184;5.406;2023-05-07T09:09:01;20.30;99.90
16643;DHT22;8435;52.184;5.406;2023-05-07T09:11:28;20.30;99.90
16643;DHT22;8435;52.184;5.406;2023-05-07T09:13:56;20.30;99.90
16643;DHT22;8435;52.184;5.406;2023-05-07T09:16:25;20.30;99.90
16643;DHT22;8435;52.184;5.406;2023-05-07T09:18:54;20.30;99.90
16643;DHT22;8435;52.184;5.406;2023-05-07T09:21:30;20.30;99.90
16643;DHT22;8435;52.184;5.406;2023-05-07T09:23:57;20.30;99.90
16643;DHT22;8435;52.184;5.406;2023-05-07T09:26:28;20.30;99.90
16643;DHT22;8435;52.184;5.406;2023-05-07T09:28:59;20.30;99.90
16643;DHT22;8435;52.184;5.406;2023-05-07T09:31:27;20.30;99.90
16643;DHT22;8435;52.184;5.406;2023-05-07T09:33:55;20.30;99.90
16643;DHT22;8435;52.184;5.406;2023-05-07T09:36:22;20.40;99.90
16643;DHT22;8435;52.184;5.406;2023-05-07T09:38:50;20.40;99.90
16643;DHT22;8435;52.184;5.406;2023-05-07T09:41:17;20.40;99.90
16643;DHT22;8435;52.184;5.406;2023-05-07T09:43:45;20.40;99.90
16643;DHT22;8435;52.184;5.406;2023-05-07T09:46:13;20.50;99.90
16643;DHT22;8435;52.184;5.406;2023-05-07T09:48:41;20.60;99.90
16643;DHT22;8435;52.184;5.406;2023-05-07T09:51:22;20.50;99.90
16643;DHT22;8435;52.184;5.406;2023-05-07T09:53:52;20.60;99.90
16643;DHT22;8435;52.184;5.406;2023-05-07T09:56:20;20.70;99.90
16643;DHT22;8435;52.184;5.406;2023-05-07T09:58:49;20.70;99.90
16643;DHT22;8435;52.184;5.406;2023-05-07T10:01:17;20.70;99.90
16643;DHT22;8435;52.184;5.406;2023-05-07T10:03:49;20.70;99.90
16643;DHT22;8435;52.184;5.406;2023-05-07T10:06:17;20.70;99.90
16643;DHT22;8435;52.184;5.406;2023-05-07T10:08:53;20.80;99.90
16643;DHT22;8435;52.184;5.406;2023-05-07T10:11:22;20.80;99.90
16643;DHT22;8435;52.184;5.406;2023-05-07T10:13:55;20.90;99.90
16643;DHT22;8435;52.184;5.406;2023-05-07T10:16:22;21.00;99.90
16643;DHT22;8435;52.184;5.406;2023-05-07T10:18:50;21.10;99.90
16643;DHT22;8435;52.184;5.406;2023-05-07T10:21:19;21.10;99.90
16643;DHT22;8435;52.184;5.406;2023-05-07T10:23:49;21.10;99.90
16643;DHT22;8435;52.184;5.406;2023-05-07T10:28:46;21.20;99.90
16643;DHT22;8435;52.184;5.406;2023-05-07T10:31:35;21.30;99.90
16643;DHT22;8435;52.184;5.406;2023-05-07T10:34:08;21.30;99.90
16643;DHT22;8435;52.184;5.406;2023-05-07T10:36:36;21.40;99.90
16643;DHT22;8435;52.184;5.406;2023-05-07T10:39:05;21.50;99.90
16643;DHT22;8435;52.184;5.406;2023-05-07T10:41:32;21.50;99.90
16643;DHT22;8435;52.184;5.406;2023-05-07T10:44:00;21.60;99.90
16643;DHT22;8435;52.184;5.406;2023-05-07T10:46:29;21.60;99.90
16643;DHT22;8435;52.184;5.406;2023-05-07T10:49:10;21.80;99.90
16643;DHT22;8435;52.184;5.406;2023-05-07T10:51:41;21.80;99.90
16643;DHT22;8435;52.184;5.406;2023-05-07T10:54:19;21.90;99.90
16643;DHT22;8435;52.184;5.406;2023-05-07T10:56:46;22.00;99.90
16643;DHT22;8435;52.184;5.406;2023-05-07T10:59:35;22.10;99.90
16643;DHT22;8435;52.184;5.406;2023-05-07T11:02:10;22.20;99.50
16643;DHT22;8435;52.184;5.406;2023-05-07T11:04:39;22.30;99.40
16643;DHT22;8435;52.184;5.406;2023-05-07T11:07:29;22.40;99.20
16643;DHT22;8435;52.184;5.406;2023-05-07T11:10:03;22.50;98.60
16643;DHT22;8435;52.184;5.406;2023-05-07T11:12:50;22.50;98.40
16643;DHT22;8435;52.184;5.406;2023-05-07T11:15:33;22.60;98.40
16643;DHT22;8435;52.184;5.406;2023-05-07T11:18:02;22.70;98.20
16643;DHT22;8435;52.184;5.406;2023-05-07T11:20:46;22.70;98.20
16643;DHT22;8435;52.184;5.406;2023-05-07T11:26:29;22.80;98.20
16643;DHT22;8435;52.184;5.406;2023-05-07T11:28:56;22.90;97.90
16643;DHT22;8435;52.184;5.406;2023-05-07T11:31:26;22.90;98.00
16643;DHT22;8435;52.184;5.406;2023-05-07T11:33:59;22.90;98.00
16643;DHT22;8435;52.184;5.406;2023-05-07T11:36:31;22.90;98.00
16643;DHT22;8435;52.184;5.406;2023-05-07T11:38:58;23.00;97.80
16643;DHT22;8435;52.184;5.406;2023-05-07T11:41:33;23.00;98.00
16643;DHT22;8435;52.184;5.406;2023-05-07T11:44:00;23.00;97.60
16643;DHT22;8435;52.184;5.406;2023-05-07T11:46:28;23.10;97.80
16643;DHT22;8435;52.184;5.406;2023-05-07T11:48:55;23.10;97.40
16643;DHT22;8435;52.184;5.406;2023-05-07T11:51:25;23.20;97.40
16643;DHT22;8435;52.184;5.406;2023-05-07T11:53:52;23.20;97.50
16643;DHT22;8435;52.184;5.406;2023-05-07T11:56:20;23.30;97.80
16643;DHT22;8435;52.184;5.406;2023-05-07T11:58:47;23.30;97.40
16643;DHT22;8435;52.184;5.406;2023-05-07T12:01:15;23.30;97.50
16643;DHT22;8435;52.184;5.406;2023-05-07T12:03:45;23.30;97.30
16643;DHT22;8435;52.184;5.406;2023-05-07T12:06:13;23.40;97.20
16643;DHT22;8435;52.184;5.406;2023-05-07T12:08:42;23.40;97.10
16643;DHT22;8435;52.184;5.406;2023-05-07T12:11:12;23.50;97.20
16643;DHT22;8435;52.184;5.406;2023-05-07T12:13:42;23.50;97.10
16643;DHT22;8435;52.184;5.406;2023-05-07T12:16:11;23.60;97.00
16643;DHT22;8435;52.184;5.406;2023-05-07T12:18:39;23.60;96.70
16643;DHT22;8435;52.184;5.406;2023-05-07T12:21:07;23.70;96.90
16643;DHT22;8435;52.184;5.406;2023-05-07T12:23:35;23.70;97.00
16643;DHT22;8435;52.184;5.406;2023-05-07T12:26:09;23.70;96.50
16643;DHT22;8435;52.184;5.406;2023-05-07T12:28:39;23.70;96.60
16643;DHT22;8435;52.184;5.406;2023-05-07T12:31:06;23.70;96.70
16643;DHT22;8435;52.184;5.406;2023-05-07T12:33:33;23.80;96.90
16643;DHT22;8435;52.184;5.406;2023-05-07T12:36:05;23.80;96.80
16643;DHT22;8435;52.184;5.406;2023-05-07T12:38:37;23.80;96.30
16643;DHT22;8435;52.184;5.406;2023-05-07T12:41:12;23.90;96.10
16643;DHT22;8435;52.184;5.406;2023-05-07T12:43:38;23.90;96.00
16643;DHT22;8435;52.184;5.406;2023-05-07T12:46:07;23.90;96.10
16643;DHT22;8435;52.184;5.406;2023-05-07T12:48:41;24.00;96.30
16643;DHT22;8435;52.184;5.406;2023-05-07T12:51:11;24.00;96.10
16643;DHT22;8435;52.184;5.406;2023-05-07T12:53:41;24.10;96.10
16643;DHT22;8435;52.184;5.406;2023-05-07T12:56:10;24.10;96.10
16643;DHT22;8435;52.184;5.406;2023-05-07T12:58:37;24.10;95.70
16643;DHT22;8435;52.184;5.406;2023-05-07T13:01:05;24.10;95.70
16643;DHT22;8435;52.184;5.406;2023-05-07T13:03:33;24.10;95.60
16643;DHT22;8435;52.184;5.406;2023-05-07T13:06:02;24.10;95.70
16643;DHT22;8435;52.184;5.406;2023-05-07T13:08:31;24.10;95.80
16643;DHT22;8435;52.184;5.406;2023-05-07T13:10:59;24.10;95.80
16643;DHT22;8435;52.184;5.406;2023-05-07T13:13:30;23.90;95.50
16643;DHT22;8435;52.184;5.406;2023-05-07T13:15:57;24.10;95.50
16643;DHT22;8435;52.184;5.406;2023-05-07T13:18:25;24.10;95.80
16643;DHT22;8435;52.184;5.406;2023-05-07T13:20:52;24.20;95.80
16643;DHT22;8435;52.184;5.406;2023-05-07T13:23:19;24.20;95.70
16643;DHT22;8435;52.184;5.406;2023-05-07T13:25:46;24.30;95.50
16643;DHT22;8435;52.184;5.406;2023-05-07T13:28:13;24.30;95.40
16643;DHT22;8435;52.184;5.406;2023-05-07T13:30:41;24.40;95.50
16643;DHT22;8435;52.184;5.406;2023-05-07T13:33:08;24.50;95.20
16643;DHT22;8435;52.184;5.406;2023-05-07T13:35:35;24.60;95.40
16643;DHT22;8435;52.184;5.406;2023-05-07T13:38:03;24.50;95.00
16643;DHT22;8435;52.184;5.406;2023-05-07T13:40:29;24.50;95.00
16643;DHT22;8435;52.184;5.406;2023-05-07T13:42:57;24.60;95.00
16643;DHT22;8435;52.184;5.406;2023-05-07T13:45:26;24.70;95.00
16643;DHT22;8435;52.184;5.406;2023-05-07T13:47:56;24.60;94.90
16643;DHT22;8435;52.184;5.406;2023-05-07T13:50:25;24.70;94.70
16643;DHT22;8435;52.184;5.406;2023-05-07T13:52:58;24.70;94.70
16643;DHT22;8435;52.184;5.406;2023-05-07T13:55:25;24.70;94.40
16643;DHT22;8435;52.184;5.406;2023-05-07T13:57:55;24.70;94.20
16643;DHT22;8435;52.184;5.406;2023-05-07T14:00:26;24.70;94.20
16643;DHT22;8435;52.184;5.406;2023-05-07T14:02:55;24.70;94.30
16643;DHT22;8435;52.184;5.406;2023-05-07T14:05:23;24.60;94.40
16643;DHT22;8435;52.184;5.406;2023-05-07T14:07:51;24.60;94.60
16643;DHT22;8435;52.184;5.406;2023-05-07T14:10:19;24.70;94.60
16643;DHT22;8435;52.184;5.406;2023-05-07T14:12:46;24.70;94.30
16643;DHT22;8435;52.184;5.406;2023-05-07T14:15:13;24.70;94.40
16643;DHT22;8435;52.184;5.406;2023-05-07T14:17:41;24.60;94.40
16643;DHT22;8435;52.184;5.406;2023-05-07T14:20:10;24.60;94.40
16643;DHT22;8435;52.184;5.406;2023-05-07T14:22:40;24.60;94.20
16643;DHT22;8435;52.184;5.406;2023-05-07T14:25:07;24.50;94.20
16643;DHT22;8435;52.184;5.406;2023-05-07T14:27:35;24.50;94.30
16643;DHT22;8435;52.184;5.406;2023-05-07T14:30:01;24.40;94.20
16643;DHT22;8435;52.184;5.406;2023-05-07T14:32:28;24.30;94.10
16643;DHT22;8435;52.184;5.406;2023-05-07T14:34:55;24.40;94.30
16643;DHT22;8435;52.184;5.406;2023-05-07T14:37:25;24.30;94.30
16643;DHT22;8435;52.184;5.406;2023-05-07T14:39:52;24.20;94.50
16643;DHT22;8435;52.184;5.406;2023-05-07T14:42:19;24.20;94.30
16643;DHT22;8435;52.184;5.406;2023-05-07T14:44:46;24.10;94.40
16643;DHT22;8435;52.184;5.406;2023-05-07T14:47:13;24.10;94.50
16643;DHT22;8435;52.184;5.406;2023-05-07T14:49:41;24.00;94.60
16643;DHT22;8435;52.184;5.406;2023-05-07T14:52:08;23.90;94.50
16643;DHT22;8435;52.184;5.406;2023-05-07T14:54:40;23.90;94.70
16643;DHT22;8435;52.184;5.406;2023-05-07T14:57:08;23.80;94.50
16643;DHT22;8435;52.184;5.406;2023-05-07T14:59:36;23.70;95.00
16643;DHT22;8435;52.184;5.406;2023-05-07T15:02:04;23.70;94.90
16643;DHT22;8435;52.184;5.406;2023-05-07T15:04:32;23.70;94.90
16643;DHT22;8435;52.184;5.406;2023-05-07T15:06:59;23.70;94.90
16643;DHT22;8435;52.184;5.406;2023-05-07T15:09:26;23.60;94.90
16643;DHT22;8435;52.184;5.406;2023-05-07T15:11:54;23.60;94.90
16643;DHT22;8435;52.184;5.406;2023-05-07T15:14:21;23.60;94.80
16643;DHT22;8435;52.184;5.406;2023-05-07T15:16:48;23.50;94.90
16643;DHT22;8435;52.184;5.406;2023-05-07T15:19:15;23.50;95.10
16643;DHT22;8435;52.184;5.406;2023-05-07T15:21:42;23.40;95.00
16643;DHT22;8435;52.184;5.406;2023-05-07T15:24:09;23.40;95.20
16643;DHT22;8435;52.184;5.406;2023-05-07T15:26:35;23.30;95.40
16643;DHT22;8435;52.184;5.406;2023-05-07T15:29:06;23.30;95.30
16643;DHT22;8435;52.184;5.406;2023-05-07T15:31:35;23.30;95.20
16643;DHT22;8435;52.184;5.406;2023-05-07T15:34:02;23.20;95.40
16643;DHT22;8435;52.184;5.406;2023-05-07T15:36:31;23.20;95.10
16643;DHT22;8435;52.184;5.406;2023-05-07T15:38:58;23.10;95.20
16643;DHT22;8435;52.184;5.406;2023-05-07T15:41:25;23.10;95.50
16643;DHT22;8435;52.184;5.406;2023-05-07T15:43:52;22.90;95.20
16643;DHT22;8435;52.184;5.406;2023-05-07T15:46:21;22.80;95.40
16643;DHT22;8435;52.184;5.406;2023-05-07T15:48:49;22.70;95.40
16643;DHT22;8435;52.184;5.406;2023-05-07T15:51:15;22.50;95.60
16643;DHT22;8435;52.184;5.406;2023-05-07T15:53:43;22.40;95.80
16643;DHT22;8435;52.184;5.406;2023-05-07T15:56:10;22.20;95.90
16643;DHT22;8435;52.184;5.406;2023-05-07T15:58:39;22.10;96.00